createdAt,value
2023-03-30T03:14:26.397Z,99736.38
2023-03-30T03:19:27.755Z,99732.66
2023-03-30T03:24:29.147Z,99748.06
2023-03-30T03:29:30.509Z,99729.56
2023-03-30T03:34:32.957Z,99748.50
2023-03-30T03:39:35.639Z,99751.81
2023-03-30T03:44:37.642Z,99692.94
2023-03-30T03:49:39.513Z,99655.59
2023-03-30T03:54:40.947Z,99629.78
2023-03-30T03:59:42.405Z,99599.03
2023-03-30T04:04:44.152Z,99629.88
2023-03-30T04:09:45.831Z,99626.81
2023-03-30T04:14:47.309Z,99619.78
2023-03-30T04:19:53.723Z,99599.59
2023-03-30T04:24:55.419Z,99596.84
2023-03-30T04:29:59.468Z,99594.09
2023-03-30T04:35:01.902Z,99599.84
2023-03-30T04:40:09.237Z,99593.44
2023-03-30T04:45:10.696Z,99601.34
2023-03-30T04:50:12.854Z,99588.50
2023-03-30T04:55:14.277Z,99582.06
2023-03-30T05:00:17.408Z,99555.28
2023-03-30T05:05:18.861Z,99571.09
2023-03-30T05:10:20.464Z,99577.59
2023-03-30T05:15:22.670Z,99595.50
2023-03-30T05:20:25.018Z,99592.41
2023-03-30T05:25:27.098Z,99591.22
2023-03-30T05:30:28.653Z,99571.28
2023-03-30T05:35:30.892Z,99584.81
2023-03-30T05:40:32.264Z,99588.16
2023-03-30T05:45:33.760Z,99589.81
2023-03-30T05:50:36.802Z,99597.91
2023-03-30T05:55:38.483Z,99622.19
2023-03-30T06:00:41.396Z,99616.78
2023-03-30T06:05:43.731Z,99609.94
2023-03-30T06:10:52.330Z,99587.31
2023-03-30T06:15:53.720Z,99623.84
2023-03-30T06:20:55.260Z,99630.28
2023-03-30T06:25:57.636Z,99647.28
2023-03-30T06:31:01.523Z,99639.78
2023-03-30T06:36:04.046Z,99640.41
2023-03-30T06:41:08.349Z,99642.72
2023-03-30T06:46:11.241Z,99644.97
2023-03-30T06:51:13.823Z,99653.91
2023-03-30T06:56:15.548Z,99629.00
2023-03-30T07:01:17.030Z,99592.22
2023-03-30T07:06:20.728Z,99599.09
2023-03-30T07:11:23.072Z,99608.59
2023-03-30T07:16:25.578Z,99630.16
2023-03-30T07:21:27.151Z,99634.25
2023-03-30T07:26:29.540Z,99640.44
2023-03-30T07:31:31.163Z,99635.38
2023-03-30T07:36:32.512Z,99617.41
2023-03-30T07:41:34.466Z,99599.91
2023-03-30T07:46:36.039Z,99631.19
2023-03-30T07:51:37.415Z,99632.34
2023-03-30T07:56:39.522Z,99609.84
2023-03-30T08:01:40.881Z,99612.88
2023-03-30T08:06:42.699Z,99615.28
2023-03-30T08:11:44.249Z,99621.88
2023-03-30T08:16:45.665Z,99647.66
2023-03-30T08:21:47.412Z,99659.06
2023-03-30T08:26:48.760Z,99654.81
2023-03-30T08:31:53.757Z,99662.81
2023-03-30T08:36:55.389Z,99661.88
2023-03-30T08:41:59.656Z,99662.91
2023-03-30T08:47:04.104Z,99629.22
2023-03-30T08:52:06.092Z,99632.69
2023-03-30T08:57:42.708Z,99636.47
2023-03-30T09:02:48.044Z,99628.34
2023-03-30T09:08:03.083Z,99641.25
2023-03-30T09:13:06.352Z,99635.81
2023-03-30T09:18:21.271Z,99643.63
2023-03-30T09:23:24.557Z,99626.78
2023-03-30T09:29:10.546Z,99627.47
2023-03-30T09:34:35.899Z,99634.19
2023-03-30T09:39:38.358Z,99644.81
2023-03-30T09:44:52.832Z,99646.22
2023-03-30T09:50:02.525Z,99633.38
2023-03-30T09:55:22.192Z,99634.78
2023-03-30T10:00:23.621Z,99633.25
2023-03-30T10:05:26.288Z,99630.31
2023-03-30T10:10:32.679Z,99613.13
2023-03-30T10:15:38.439Z,99626.59
2023-03-30T10:20:41.388Z,99613.25
2023-03-30T10:25:43.634Z,99613.47
2023-03-30T10:31:16.100Z,99607.31
2023-03-30T10:36:19.342Z,99605.34
2023-03-30T10:41:23.616Z,99609.59
2023-03-30T10:46:25.153Z,99621.06
2023-03-30T10:51:29.344Z,99611.66
2023-03-30T10:56:39.939Z,99604.91
2023-03-30T11:01:53.210Z,99608.78
2023-03-30T11:06:57.831Z,99598.81
2023-03-30T11:12:05.055Z,99592.34
2023-03-30T11:17:12.725Z,99591.59
2023-03-30T11:22:32.956Z,99601.31
2023-03-30T11:27:43.672Z,99589.03
2023-03-30T11:32:57.363Z,99585.97
2023-03-30T11:38:12.687Z,99571.38
2023-03-30T11:43:16.895Z,99542.50
2023-03-30T11:48:41.006Z,99550.56
2023-03-30T11:54:04.516Z,99571.47
2023-03-30T11:59:36.313Z,99586.94
2023-03-30T12:04:56.771Z,99570.78
2023-03-30T12:10:08.295Z,99576.53
2023-03-30T12:15:43.495Z,99591.84
2023-03-30T12:20:53.797Z,99600.97
2023-03-30T12:26:31.082Z,99602.59
2023-03-30T12:32:03.510Z,99607.81
2023-03-30T12:37:12.917Z,99605.50
2023-03-30T12:42:37.468Z,99616.22
2023-03-30T12:47:46.951Z,99630.72
2023-03-30T12:53:01.839Z,99640.16
2023-03-30T12:58:27.104Z,99635.16
2023-03-30T13:03:49.248Z,99638.41
2023-03-30T13:08:55.754Z,99660.53
2023-03-30T13:13:59.734Z,99683.81
2023-03-30T13:19:13.733Z,99670.75
2023-03-30T13:24:41.728Z,99653.09
2023-03-30T13:29:55.526Z,99657.28
2023-03-30T13:35:31.043Z,99658.59
2023-03-30T13:40:57.919Z,99683.06
2023-03-30T13:46:35.635Z,99676.53
2023-03-30T13:51:42.239Z,99680.06
2023-03-30T13:56:48.550Z,99679.13
2023-03-30T14:01:56.416Z,99694.00
2023-03-30T14:06:58.431Z,99698.34
2023-03-30T14:12:05.930Z,99675.88
2023-03-30T14:17:19.077Z,99685.78
2023-03-30T14:22:27.213Z,99684.81
2023-03-30T14:27:38.865Z,99699.28
2023-03-30T14:32:40.699Z,99716.25
2023-03-30T14:42:44.978Z,99739.81
2023-03-30T14:47:48.033Z,99722.28
2023-03-30T14:52:52.305Z,99699.56
2023-03-30T14:57:55.775Z,99700.00
2023-03-30T15:03:00.461Z,99692.88
2023-03-30T15:08:03.628Z,99686.84
2023-03-30T15:13:07.535Z,99697.75
2023-03-30T15:18:21.306Z,99703.69
2023-03-30T15:23:26.090Z,99700.88
2023-03-30T15:28:32.815Z,99699.75
2023-03-30T15:33:36.486Z,99704.16
2023-03-30T15:38:46.777Z,99698.06
2023-03-30T15:43:59.314Z,99692.78
2023-03-30T15:49:02.615Z,99688.97
2023-03-30T15:54:30.292Z,99687.56
2023-03-30T15:59:35.124Z,99689.34
2023-03-30T16:04:36.496Z,99678.47
2023-03-30T16:09:37.845Z,99675.69
2023-03-30T16:14:39.753Z,99670.69
2023-03-30T16:19:41.582Z,99663.34
2023-03-30T16:24:43.366Z,99664.44
2023-03-30T16:29:44.950Z,99662.53
2023-03-30T16:34:46.988Z,99667.16
2023-03-30T16:39:48.372Z,99667.53
2023-03-30T16:44:49.695Z,99668.66
2023-03-30T16:49:51.785Z,99653.19
2023-03-30T16:54:53.123Z,99661.53
2023-03-30T16:59:54.450Z,99654.31
2023-03-30T17:04:55.772Z,99669.34
2023-03-30T17:09:57.794Z,99678.53
2023-03-30T17:14:59.136Z,99681.25
2023-03-30T17:20:18.358Z,99690.81
2023-03-30T17:25:23.274Z,99688.22
2023-03-30T17:30:28.229Z,99700.06
2023-03-30T17:35:29.718Z,99720.25
2023-03-30T17:40:32.423Z,99713.38
2023-03-30T17:45:35.167Z,99720.84
2023-03-30T17:50:39.428Z,99715.13
2023-03-30T17:55:41.197Z,99720.88
2023-03-30T18:00:42.726Z,99722.16
2023-03-30T18:05:44.897Z,99728.00
2023-03-30T18:10:48.719Z,99727.47
2023-03-30T18:15:53.063Z,99728.09
2023-03-30T18:21:03.095Z,99730.56
2023-03-30T18:26:10.304Z,99736.59
2023-03-30T18:31:13.042Z,99739.09
2023-03-30T18:36:14.955Z,99761.50
2023-03-30T18:41:16.422Z,99773.50
2023-03-30T18:46:17.843Z,99759.69
2023-03-30T18:51:20.887Z,99767.88
2023-03-30T18:56:22.925Z,99771.81
2023-03-30T19:01:24.338Z,99776.75
2023-03-30T19:06:25.959Z,99769.25
2023-03-30T19:11:27.349Z,99770.19
2023-03-30T19:16:29.262Z,99758.91
2023-03-30T19:21:30.735Z,99762.94
2023-03-30T19:26:32.635Z,99768.75
2023-03-30T19:31:36.162Z,99764.81
2023-03-30T19:36:37.613Z,99763.53
2023-03-30T19:41:39.026Z,99754.41
2023-03-30T19:46:40.737Z,99751.38
2023-03-30T19:51:42.110Z,99752.66
2023-03-30T19:56:43.530Z,99753.94
2023-03-30T20:01:44.941Z,99760.84
2023-03-30T20:06:46.747Z,99760.38
2023-03-30T20:11:48.207Z,99761.25
2023-03-30T20:16:49.773Z,99760.63
2023-03-30T20:21:51.829Z,99753.13
2023-03-30T20:26:53.168Z,99755.03
2023-03-30T20:31:54.619Z,99756.91
2023-03-30T20:36:56.024Z,99754.56
2023-03-30T20:41:58.219Z,99745.44
2023-03-30T20:46:59.800Z,99739.81
2023-03-30T20:52:01.455Z,99732.72
2023-03-30T20:57:02.869Z,99735.63
2023-03-30T21:02:04.926Z,99724.88
2023-03-30T21:07:06.618Z,99728.03
2023-03-30T21:12:09.560Z,99737.22
2023-03-30T21:17:11.498Z,99721.25
2023-03-30T21:22:12.932Z,99734.97
2023-03-30T21:27:14.596Z,99729.16
2023-03-30T21:32:15.979Z,99712.09
2023-03-30T21:37:17.375Z,99707.31
2023-03-30T21:42:18.727Z,99713.13
2023-03-30T21:47:20.320Z,99712.13
2023-03-30T21:52:21.736Z,99708.19
2023-03-30T21:57:23.286Z,99703.88
2023-03-30T22:02:24.871Z,99693.91
2023-03-30T22:07:26.286Z,99688.84
2023-03-30T22:12:27.814Z,99689.84
2023-03-30T22:17:35.174Z,99678.16
2023-03-30T22:22:36.728Z,99660.50
2023-03-30T22:27:38.216Z,99652.03
2023-03-30T22:32:40.146Z,99656.59
2023-03-30T22:37:41.893Z,99646.84
2023-03-30T22:42:43.251Z,99649.16
2023-03-30T22:47:44.808Z,99638.34
2023-03-30T22:52:46.562Z,99655.19
2023-03-30T22:57:48.370Z,99635.66
2023-03-30T23:02:50.300Z,99619.91
2023-03-30T23:07:51.750Z,99601.63
2023-03-30T23:12:53.912Z,99609.94
2023-03-30T23:17:56.389Z,99602.88
2023-03-30T23:22:57.784Z,99598.28
2023-03-30T23:28:00.816Z,99585.00
2023-03-30T23:33:02.243Z,99571.13
2023-03-30T23:38:04.111Z,99559.03
2023-03-30T23:43:05.642Z,99564.25
2023-03-30T23:48:07.217Z,99568.03
2023-03-30T23:53:09.368Z,99568.69
2023-03-30T23:58:10.952Z,99568.06
